createdAt,value
2022-08-17T00:00:33.336Z,28.52
2022-08-17T00:02:55.417Z,28.49
2022-08-17T00:05:00.348Z,28.49
2022-08-17T00:07:04.814Z,28.48
2022-08-17T00:09:09.488Z,28.49
2022-08-17T00:11:22.433Z,28.49
2022-08-17T00:13:26.949Z,28.5
2022-08-17T00:15:31.469Z,28.49
2022-08-17T00:17:35.985Z,28.49
2022-08-17T00:19:40.436Z,28.5
2022-08-17T00:22:14.736Z,28.51
2022-08-17T00:24:40.439Z,28.5
2022-08-17T00:26:45.538Z,28.51
2022-08-17T00:28:50.117Z,28.51
2022-08-17T00:30:56.559Z,28.51
2022-08-17T00:33:10.455Z,28.51
2022-08-17T00:35:20.642Z,28.49
2022-08-17T00:37:25.060Z,28.46
2022-08-17T00:39:29.631Z,28.44
2022-08-17T00:41:34.409Z,28.42
2022-08-17T00:43:44.864Z,28.42
2022-08-17T00:45:49.379Z,28.39
2022-08-17T00:47:53.907Z,28.4
2022-08-17T00:49:58.527Z,28.37
2022-08-17T00:52:03.045Z,28.39
2022-08-17T00:54:16.276Z,28.38
2022-08-17T00:56:20.784Z,28.37
2022-08-17T00:58:35.993Z,28.35
2022-08-17T01:00:40.726Z,28.36
2022-08-17T01:02:45.440Z,28.33
2022-08-17T01:04:50.023Z,28.33
2022-08-17T01:06:54.542Z,28.31
2022-08-17T01:08:59.062Z,28.31
2022-08-17T01:11:03.582Z,28.31
2022-08-17T01:13:08.100Z,28.3
2022-08-17T01:15:12.621Z,28.29
2022-08-17T01:17:17.138Z,28.28
2022-08-17T01:19:21.667Z,28.27
2022-08-17T01:21:26.178Z,28.27
2022-08-17T01:23:30.697Z,28.27
2022-08-17T01:25:35.131Z,28.26
2022-08-17T01:27:39.707Z,28.24
2022-08-17T01:29:44.259Z,28.22
2022-08-17T01:31:48.771Z,28.22
2022-08-17T01:33:53.405Z,28.22
2022-08-17T01:35:58.021Z,28.23
2022-08-17T01:38:02.541Z,28.22
2022-08-17T01:40:07.262Z,28.21
2022-08-17T01:42:12.292Z,28.21
2022-08-17T01:44:18.474Z,28.2
2022-08-17T01:46:22.903Z,28.2
2022-08-17T01:48:27.381Z,28.19
2022-08-17T01:50:31.899Z,28.18
2022-08-17T01:52:36.431Z,28.15
2022-08-17T01:54:40.940Z,28.15
2022-08-17T01:56:47.287Z,28.13
2022-08-17T01:58:52.227Z,28.11
2022-08-17T02:00:59.816Z,28.1
2022-08-17T02:03:05.732Z,28.11
2022-08-17T02:05:10.188Z,28.1
2022-08-17T02:07:16.449Z,28.08
2022-08-17T02:09:30.270Z,28.08
2022-08-17T02:11:34.904Z,28.06
2022-08-17T02:13:39.423Z,28.05
2022-08-17T02:15:44.049Z,28.03
2022-08-17T02:17:48.569Z,28.02
2022-08-17T02:19:59.434Z,28.02
2022-08-17T02:22:03.954Z,28.03
2022-08-17T02:24:08.483Z,28.02
2022-08-17T02:26:24.135Z,28
2022-08-17T02:28:30.930Z,27.99
2022-08-17T02:30:59.010Z,27.98
2022-08-17T02:33:09.183Z,27.97
2022-08-17T02:35:14.383Z,27.95
2022-08-17T02:37:25.764Z,27.95
2022-08-17T02:39:30.356Z,27.97
2022-08-17T02:41:35.213Z,27.96
2022-08-17T02:43:39.734Z,27.95
2022-08-17T02:45:44.245Z,27.93
2022-08-17T02:47:48.869Z,27.91
2022-08-17T02:49:54.113Z,27.9
2022-08-17T02:52:00.474Z,27.89
2022-08-17T02:54:39.467Z,27.87
2022-08-17T02:56:46.062Z,27.85
2022-08-17T02:58:50.679Z,27.84
2022-08-17T03:00:55.205Z,27.84
2022-08-17T03:03:02.387Z,27.82
2022-08-17T03:05:06.903Z,27.83
2022-08-17T03:07:11.421Z,27.83
2022-08-17T03:09:15.949Z,27.83
2022-08-17T03:11:20.462Z,27.82
2022-08-17T03:13:24.984Z,27.81
2022-08-17T03:15:29.500Z,27.8
2022-08-17T03:17:34.121Z,27.78
2022-08-17T03:19:39.613Z,27.75
2022-08-17T03:21:47.523Z,27.74
2022-08-17T03:24:00.581Z,27.75
2022-08-17T03:26:15.460Z,27.74
2022-08-17T03:28:23.134Z,27.72
2022-08-17T03:30:27.760Z,27.72
2022-08-17T03:32:32.281Z,27.71
2022-08-17T03:34:36.799Z,27.7
2022-08-17T03:36:41.315Z,27.68
2022-08-17T03:38:45.837Z,27.66
2022-08-17T03:40:56.109Z,27.69
2022-08-17T03:43:03.675Z,27.69
2022-08-17T03:45:08.197Z,27.66
2022-08-17T03:47:12.716Z,27.64
2022-08-17T03:49:17.243Z,27.62
2022-08-17T03:51:21.763Z,27.62
2022-08-17T03:53:26.280Z,27.61
2022-08-17T03:55:35.983Z,27.62
2022-08-17T03:57:41.056Z,27.61
2022-08-17T03:59:45.560Z,27.62
2022-08-17T04:01:51.483Z,27.6
2022-08-17T04:03:58.089Z,27.6
2022-08-17T04:06:02.707Z,27.61
2022-08-17T04:08:07.231Z,27.61
2022-08-17T04:10:11.848Z,27.61
2022-08-17T04:12:16.376Z,27.62
2022-08-17T04:14:20.888Z,27.61
2022-08-17T04:16:25.408Z,27.6
2022-08-17T04:18:29.923Z,27.59
2022-08-17T04:20:37.210Z,27.6
2022-08-17T04:22:41.725Z,27.59
2022-08-17T04:24:50.956Z,27.56
2022-08-17T04:26:56.088Z,27.56
2022-08-17T04:29:00.718Z,27.55
2022-08-17T04:31:05.229Z,27.56
2022-08-17T04:33:11.456Z,27.57
2022-08-17T04:35:17.029Z,27.56
2022-08-17T04:37:21.549Z,27.55
2022-08-17T04:39:26.131Z,27.55
2022-08-17T04:41:30.799Z,27.54
2022-08-17T04:43:35.318Z,27.54
2022-08-17T04:45:39.836Z,27.53
2022-08-17T04:47:59.818Z,27.54
2022-08-17T04:50:04.339Z,27.5
2022-08-17T04:52:08.851Z,27.52
2022-08-17T04:54:48.288Z,27.53
2022-08-17T04:56:52.809Z,27.55
2022-08-17T04:58:57.332Z,27.55
2022-08-17T05:01:01.964Z,27.56
2022-08-17T05:03:06.682Z,27.54
2022-08-17T05:05:11.192Z,27.52
2022-08-17T05:07:21.167Z,27.51
2022-08-17T05:09:34.259Z,27.5
2022-08-17T05:11:38.778Z,27.49
2022-08-17T05:13:49.460Z,27.5
2022-08-17T05:15:54.166Z,27.51
2022-08-17T05:17:58.686Z,27.51
2022-08-17T05:20:03.166Z,27.5
2022-08-17T05:22:07.722Z,27.5
2022-08-17T05:24:15.564Z,27.5
2022-08-17T05:27:01.430Z,27.5
2022-08-17T05:29:10.635Z,27.46
2022-08-17T05:31:15.158Z,27.4
2022-08-17T05:33:19.675Z,27.34
2022-08-17T05:35:24.193Z,27.27
2022-08-17T05:37:28.712Z,27.19
2022-08-17T05:39:33.242Z,27.12
2022-08-17T05:41:38.058Z,27.1
2022-08-17T05:43:42.472Z,27.08
2022-08-17T05:45:55.074Z,27.11
2022-08-17T05:48:00.332Z,27.17
2022-08-17T05:50:09.422Z,27.22
2022-08-17T05:52:28.617Z,27.27
2022-08-17T05:54:33.134Z,27.29
2022-08-17T05:56:37.647Z,27.31
2022-08-17T05:58:42.174Z,27.33
2022-08-17T06:00:46.704Z,27.34
2022-08-17T06:02:51.806Z,27.35
2022-08-17T06:04:57.485Z,27.37
2022-08-17T06:07:01.980Z,27.38
2022-08-17T06:09:06.497Z,27.4
2022-08-17T06:11:11.128Z,27.41
2022-08-17T06:13:16.167Z,27.42
2022-08-17T06:15:20.670Z,27.44
2022-08-17T06:17:25.193Z,27.44
2022-08-17T06:19:29.714Z,27.46
2022-08-17T06:21:34.226Z,27.46
2022-08-17T06:23:38.746Z,27.47
2022-08-17T06:25:43.264Z,27.48
2022-08-17T06:27:47.782Z,27.47
2022-08-17T06:29:58.136Z,27.5
2022-08-17T06:32:02.658Z,27.52
2022-08-17T06:34:07.278Z,27.54
2022-08-17T06:36:13.778Z,27.53
2022-08-17T06:38:21.851Z,27.55
2022-08-17T06:40:42.448Z,27.55
2022-08-17T06:42:54.504Z,27.56
2022-08-17T06:45:11.617Z,27.59
2022-08-17T06:47:16.068Z,27.59
2022-08-17T06:49:33.076Z,27.6
2022-08-17T06:51:37.503Z,27.61
2022-08-17T06:53:42.114Z,27.63
2022-08-17T06:55:46.648Z,27.63
2022-08-17T06:57:51.291Z,27.63
2022-08-17T06:59:56.684Z,27.62
2022-08-17T07:02:01.325Z,27.64
2022-08-17T07:04:11.717Z,27.66
2022-08-17T07:06:16.804Z,27.68
2022-08-17T07:08:23.403Z,27.68
2022-08-17T07:10:37.415Z,27.68
2022-08-17T07:12:42.144Z,27.67
2022-08-17T07:14:46.756Z,27.68
2022-08-17T07:16:51.378Z,27.66
2022-08-17T07:18:55.900Z,27.64
2022-08-17T07:21:01.746Z,27.64
2022-08-17T07:23:06.265Z,27.64
2022-08-17T07:25:10.784Z,27.63
2022-08-17T07:27:24.315Z,27.64
2022-08-17T07:29:29.140Z,27.63
2022-08-17T07:31:33.697Z,27.64
2022-08-17T07:33:38.283Z,27.64
2022-08-17T07:35:43.856Z,27.66
2022-08-17T07:37:48.910Z,27.65
2022-08-17T07:39:58.984Z,27.66
2022-08-17T07:42:21.241Z,27.68
2022-08-17T07:44:25.859Z,27.68
2022-08-17T07:46:30.392Z,27.69
2022-08-17T07:48:34.998Z,27.7
2022-08-17T07:50:39.523Z,27.72
2022-08-17T07:52:52.455Z,27.73
2022-08-17T07:54:57.152Z,27.73
2022-08-17T07:57:01.678Z,27.74
2022-08-17T07:59:06.195Z,27.75
2022-08-17T08:01:11.947Z,27.75
2022-08-17T08:03:20.351Z,27.76
2022-08-17T08:05:48.663Z,27.76
2022-08-17T08:07:55.708Z,27.77
2022-08-17T08:10:00.226Z,27.79
2022-08-17T08:12:04.844Z,27.79
2022-08-17T08:14:19.395Z,27.8
2022-08-17T08:16:30.787Z,27.8
2022-08-17T08:18:38.910Z,27.78
2022-08-17T08:21:01.142Z,27.8
2022-08-17T08:23:05.735Z,27.8
2022-08-17T08:25:10.254Z,27.78
2022-08-17T08:27:14.774Z,27.78
2022-08-17T08:29:19.394Z,27.79
2022-08-17T08:31:23.909Z,27.78
2022-08-17T08:33:28.532Z,27.8
2022-08-17T08:35:33.050Z,27.8
2022-08-17T08:37:49.392Z,27.82
2022-08-17T08:39:54.628Z,27.82
2022-08-17T08:41:59.509Z,27.82
2022-08-17T08:44:04.134Z,27.82
2022-08-17T08:46:08.652Z,27.83
2022-08-17T08:48:22.821Z,27.84
2022-08-17T08:51:12.673Z,27.85
2022-08-17T08:53:19.149Z,27.85
2022-08-17T08:55:23.763Z,27.85
2022-08-17T08:57:33.632Z,27.85
2022-08-17T08:59:41.945Z,27.86
2022-08-17T09:02:01.386Z,27.87
2022-08-17T09:04:21.708Z,27.88
2022-08-17T09:06:32.509Z,27.89
2022-08-17T09:08:44.077Z,27.9
2022-08-17T09:10:48.743Z,27.91
2022-08-17T09:12:53.347Z,27.91
2022-08-17T09:14:57.883Z,27.92
2022-08-17T09:17:02.398Z,27.93
2022-08-17T09:19:07.160Z,27.93
2022-08-17T09:21:11.860Z,27.94
2022-08-17T09:23:20.773Z,27.93
2022-08-17T09:25:25.286Z,27.95
2022-08-17T09:27:29.810Z,27.94
2022-08-17T09:29:34.325Z,27.94
2022-08-17T09:31:41.900Z,27.95
2022-08-17T09:33:53.910Z,27.95
2022-08-17T09:35:58.533Z,27.96
2022-08-17T09:38:03.833Z,27.97
2022-08-17T09:40:08.626Z,27.98
2022-08-17T09:42:13.446Z,27.99
2022-08-17T09:44:22.866Z,28
2022-08-17T09:46:28.293Z,28.01
2022-08-17T09:48:32.810Z,28.02
2022-08-17T09:50:55.735Z,28.04
2022-08-17T09:53:10.214Z,28.06
2022-08-17T09:55:14.938Z,28.08
2022-08-17T09:57:29.599Z,28.09
2022-08-17T09:59:38.262Z,28.12
2022-08-17T10:01:47.034Z,28.13
2022-08-17T10:03:51.752Z,28.16
2022-08-17T10:05:56.383Z,28.16
2022-08-17T10:08:01.199Z,28.18
2022-08-17T10:10:07.788Z,28.19
2022-08-17T10:12:17.919Z,28.21
2022-08-17T10:14:36.147Z,28.22
2022-08-17T10:16:56.136Z,28.24
2022-08-17T10:19:00.626Z,28.25
2022-08-17T10:21:05.174Z,28.25
2022-08-17T10:23:09.694Z,28.26
2022-08-17T10:25:21.949Z,28.27
2022-08-17T10:27:57.747Z,28.29
2022-08-17T10:30:02.367Z,28.3
2022-08-17T10:32:06.885Z,28.32
2022-08-17T10:34:11.403Z,28.32
2022-08-17T10:36:15.924Z,28.32
2022-08-17T10:38:21.509Z,28.32
2022-08-17T10:40:29.224Z,28.31
2022-08-17T10:42:34.090Z,28.31
2022-08-17T10:44:41.187Z,28.31
2022-08-17T10:46:46.098Z,28.32
2022-08-17T10:48:50.605Z,28.32
2022-08-17T10:50:55.231Z,28.34
2022-08-17T10:52:59.755Z,28.36
2022-08-17T10:55:04.267Z,28.38
2022-08-17T10:57:08.797Z,28.4
2022-08-17T10:59:13.316Z,28.41
2022-08-17T11:01:18.014Z,28.41
2022-08-17T11:03:22.753Z,28.41
2022-08-17T11:05:27.271Z,28.41
2022-08-17T11:07:31.887Z,28.36
2022-08-17T11:09:36.512Z,28.34
2022-08-17T11:11:41.038Z,28.3
2022-08-17T11:13:45.651Z,28.28
2022-08-17T11:15:50.172Z,28.26
2022-08-17T11:17:54.917Z,28.27
2022-08-17T11:19:59.350Z,28.3
2022-08-17T11:22:03.826Z,28.31
2022-08-17T11:24:08.556Z,28.33
2022-08-17T11:26:13.174Z,28.35
2022-08-17T11:28:18.143Z,28.37
2022-08-17T11:30:22.768Z,28.4
2022-08-17T11:32:32.398Z,28.45
2022-08-17T11:34:38.616Z,28.5
2022-08-17T11:36:43.138Z,28.53
2022-08-17T11:38:49.088Z,28.56
2022-08-17T11:40:53.622Z,28.59
2022-08-17T11:42:58.124Z,28.64
2022-08-17T11:45:02.582Z,28.7
2022-08-17T11:47:07.162Z,28.85
2022-08-17T11:49:11.643Z,28.91
2022-08-17T11:51:16.146Z,29.04
2022-08-17T11:53:20.618Z,29.05
2022-08-17T11:55:34.937Z,29.05
2022-08-17T11:57:47.623Z,29.09
2022-08-17T11:59:52.710Z,29.06
2022-08-17T12:01:57.633Z,29.05
2022-08-17T12:04:02.355Z,29.07
2022-08-17T12:06:07.089Z,29.05
2022-08-17T12:08:11.607Z,29.04
2022-08-17T12:10:16.228Z,29.06
2022-08-17T12:12:20.849Z,29.07
2022-08-17T12:14:40.055Z,29.11
2022-08-17T12:17:25.910Z,29.11
2022-08-17T12:19:46.488Z,29.12
2022-08-17T12:21:51.008Z,29.11
2022-08-17T12:23:55.531Z,29.08
2022-08-17T12:26:00.253Z,29.07
2022-08-17T12:28:07.337Z,29.11
2022-08-17T12:30:13.714Z,29.15
2022-08-17T12:32:18.313Z,29.19
2022-08-17T12:34:22.834Z,29.23
2022-08-17T12:36:27.343Z,29.24
2022-08-17T12:38:33.400Z,29.24
2022-08-17T12:40:38.465Z,29.25
2022-08-17T12:42:43.054Z,29.25
2022-08-17T12:44:49.777Z,29.24
2022-08-17T12:46:55.169Z,29.22
2022-08-17T12:49:00.225Z,29.2
2022-08-17T12:51:04.722Z,29.19
2022-08-17T12:53:09.169Z,29.21
2022-08-17T12:55:13.557Z,29.24
2022-08-17T12:57:17.976Z,29.24
2022-08-17T12:59:29.670Z,29.27
2022-08-17T13:01:36.464Z,29.29
2022-08-17T13:03:41.215Z,29.3
2022-08-17T13:05:45.777Z,29.3
2022-08-17T13:07:50.418Z,29.31
2022-08-17T13:09:55.531Z,29.32
2022-08-17T13:11:59.973Z,29.31
2022-08-17T13:14:04.673Z,29.31
2022-08-17T13:16:09.194Z,29.29
2022-08-17T13:18:13.647Z,29.27
2022-08-17T13:20:18.338Z,29.26
2022-08-17T13:22:22.850Z,29.24
2022-08-17T13:24:27.375Z,29.23
2022-08-17T13:26:40.698Z,29.2
2022-08-17T13:28:45.321Z,29.17
2022-08-17T13:30:49.821Z,29.16
2022-08-17T13:32:54.358Z,29.18
2022-08-17T13:35:08.356Z,29.19
2022-08-17T13:37:42.546Z,29.2
2022-08-17T13:39:47.374Z,29.21
2022-08-17T13:41:52.061Z,29.23
2022-08-17T13:43:56.582Z,29.25
2022-08-17T13:46:01.104Z,29.26
2022-08-17T13:48:05.518Z,29.23
2022-08-17T13:50:10.041Z,29.19
2022-08-17T13:52:14.663Z,29.17
2022-08-17T13:54:31.377Z,29.15
2022-08-17T13:56:38.120Z,29.16
2022-08-17T13:58:43.478Z,29.17
2022-08-17T14:00:48.004Z,29.15
2022-08-17T14:02:52.541Z,29.13
2022-08-17T14:04:57.041Z,29.11
2022-08-17T14:07:02.170Z,29.1
2022-08-17T14:09:06.693Z,29.1
2022-08-17T14:11:11.207Z,29.09
2022-08-17T14:13:15.833Z,29.07
2022-08-17T14:15:20.450Z,29.07
2022-08-17T14:17:24.970Z,29.07
2022-08-17T14:19:29.593Z,29.07
2022-08-17T14:21:34.107Z,29.07
2022-08-17T14:23:38.734Z,29.07
2022-08-17T14:25:46.122Z,29.05
2022-08-17T14:27:52.534Z,29.05
2022-08-17T14:29:59.562Z,29.04
2022-08-17T14:32:04.388Z,29.03
2022-08-17T14:34:08.906Z,29.03
2022-08-17T14:36:13.536Z,29.02
2022-08-17T14:38:18.152Z,29
2022-08-17T14:40:22.880Z,29
2022-08-17T14:42:27.808Z,28.99
2022-08-17T14:44:32.316Z,29.01
2022-08-17T14:46:36.843Z,29.02
2022-08-17T14:48:41.357Z,29.04
2022-08-17T14:50:45.980Z,29.05
2022-08-17T14:52:50.491Z,29.04
2022-08-17T14:54:55.013Z,29.03
2022-08-17T14:57:22.341Z,29.02
2022-08-17T14:59:38.359Z,29.03
2022-08-17T15:01:42.993Z,29.05
2022-08-17T15:03:47.806Z,29.07
2022-08-17T15:05:52.324Z,29.08
2022-08-17T15:07:56.849Z,29.08
2022-08-17T15:10:01.972Z,29.07
2022-08-17T15:12:06.798Z,29.07
2022-08-17T15:14:11.426Z,29.09
2022-08-17T15:16:15.903Z,29.12
2022-08-17T15:18:20.460Z,29.12
2022-08-17T15:20:25.002Z,29.13
2022-08-17T15:22:29.703Z,29.14
2022-08-17T15:24:34.323Z,29.14
2022-08-17T15:26:38.842Z,29.16
2022-08-17T15:28:43.357Z,29.17
2022-08-17T15:30:57.817Z,29.18
2022-08-17T15:33:02.331Z,29.22
2022-08-17T15:35:08.285Z,29.23
2022-08-17T15:37:12.905Z,29.23
2022-08-17T15:39:19.475Z,29.25
2022-08-17T15:41:24.301Z,29.28
2022-08-17T15:43:28.922Z,29.31
2022-08-17T15:45:33.436Z,29.32
2022-08-17T15:47:37.957Z,29.33
2022-08-17T15:49:42.434Z,29.35
2022-08-17T15:51:46.847Z,29.37
2022-08-17T15:53:51.418Z,29.37
2022-08-17T15:55:55.926Z,29.37
2022-08-17T15:58:00.447Z,29.39
2022-08-17T16:00:04.968Z,29.42
2022-08-17T16:03:02.162Z,29.47
2022-08-17T16:06:33.166Z,29.57
2022-08-17T16:08:37.683Z,29.62
2022-08-17T16:10:42.204Z,29.64
2022-08-17T16:12:46.793Z,29.68
2022-08-17T16:14:51.345Z,29.69
2022-08-17T16:16:55.872Z,29.7
2022-08-17T16:19:00.379Z,29.7
2022-08-17T16:21:05.210Z,29.72
2022-08-17T16:23:09.728Z,29.73
2022-08-17T16:25:14.345Z,29.76
2022-08-17T16:27:18.867Z,29.79
2022-08-17T16:29:23.495Z,29.81
2022-08-17T16:31:28.213Z,29.82
2022-08-17T16:33:32.939Z,29.85
2022-08-17T16:35:37.456Z,29.87
2022-08-17T16:37:44.662Z,29.88
2022-08-17T16:39:50.376Z,29.89
2022-08-17T16:41:55.030Z,29.89
2022-08-17T16:43:59.989Z,29.91
2022-08-17T16:46:04.493Z,29.91
2022-08-17T16:48:09.073Z,29.93
2022-08-17T16:50:13.593Z,29.95
2022-08-17T16:52:32.335Z,29.95
2022-08-17T16:54:37.587Z,29.97
2022-08-17T16:56:42.150Z,29.99
2022-08-17T16:58:46.625Z,30
2022-08-17T17:00:56.093Z,30.01
2022-08-17T17:03:00.872Z,30.02
2022-08-17T17:05:21.783Z,30.04
2022-08-17T17:07:26.404Z,30.06
2022-08-17T17:09:30.919Z,30.08
2022-08-17T17:11:35.540Z,30.09
2022-08-17T17:13:40.059Z,30.09
2022-08-17T17:15:44.647Z,30.09
2022-08-17T17:17:49.321Z,30.08
2022-08-17T17:19:54.639Z,30.08
2022-08-17T17:21:59.158Z,30.07
2022-08-17T17:24:03.673Z,30.06
2022-08-17T17:26:08.300Z,30.04
2022-08-17T17:28:12.788Z,30.02
2022-08-17T17:30:17.442Z,30
2022-08-17T17:32:22.061Z,29.99
2022-08-17T17:34:26.588Z,29.97
2022-08-17T17:36:31.011Z,29.96
2022-08-17T17:38:35.720Z,29.95
2022-08-17T17:40:40.207Z,29.94
2022-08-17T17:42:44.766Z,29.94
2022-08-17T17:44:49.362Z,29.91
2022-08-17T17:46:54.004Z,29.9
2022-08-17T17:48:58.519Z,29.88
2022-08-17T17:51:03.046Z,29.85
2022-08-17T17:53:07.570Z,29.81
2022-08-17T17:55:12.077Z,29.78
2022-08-17T17:57:16.550Z,29.77
2022-08-17T17:59:21.128Z,29.73
2022-08-17T18:01:25.791Z,29.72
2022-08-17T18:03:30.569Z,29.73
2022-08-17T18:05:35.083Z,29.72
2022-08-17T18:07:39.705Z,29.72
2022-08-17T18:09:49.871Z,29.75
2022-08-17T18:12:03.905Z,29.76
2022-08-17T18:14:09.441Z,29.76
2022-08-17T18:16:14.062Z,29.78
2022-08-17T18:18:18.689Z,29.77
2022-08-17T18:20:23.307Z,29.76
2022-08-17T18:22:58.547Z,29.76
2022-08-17T18:25:03.065Z,29.74
2022-08-17T18:27:08.552Z,29.75
2022-08-17T18:29:13.577Z,29.77
2022-08-17T18:31:18.257Z,29.8
2022-08-17T18:33:22.998Z,29.81
2022-08-17T18:35:27.760Z,29.82
2022-08-17T18:37:32.457Z,29.78
2022-08-17T18:39:37.222Z,29.75
2022-08-17T18:41:42.496Z,29.73
2022-08-17T18:43:53.382Z,29.74
2022-08-17T18:45:58.398Z,29.72
2022-08-17T18:48:03.054Z,29.75
2022-08-17T18:50:08.068Z,29.75
2022-08-17T18:52:15.666Z,29.77
2022-08-17T18:54:20.675Z,29.78
2022-08-17T18:56:25.400Z,29.79
2022-08-17T18:58:32.981Z,29.8
2022-08-17T19:00:37.503Z,29.76
2022-08-17T19:02:45.410Z,29.75
2022-08-17T19:04:50.739Z,29.72
2022-08-17T19:06:55.480Z,29.71
2022-08-17T19:09:00.286Z,29.69
2022-08-17T19:11:04.911Z,29.67
2022-08-17T19:13:11.294Z,29.65
2022-08-17T19:15:26.669Z,29.63
2022-08-17T19:17:31.115Z,29.62
2022-08-17T19:19:35.787Z,29.64
2022-08-17T19:21:40.459Z,29.66
2022-08-17T19:23:53.302Z,29.65
2022-08-17T19:25:59.200Z,29.65
2022-08-17T19:28:12.672Z,29.64
2022-08-17T19:30:31.359Z,29.64
2022-08-17T19:32:36.219Z,29.63
2022-08-17T19:34:41.035Z,29.62
2022-08-17T19:36:45.632Z,29.61
2022-08-17T19:38:50.287Z,29.62
2022-08-17T19:40:55.111Z,29.61
2022-08-17T19:43:00.659Z,29.61
2022-08-17T19:45:05.568Z,29.61
2022-08-17T19:47:10.521Z,29.63
2022-08-17T19:49:15.305Z,29.63
2022-08-17T19:51:19.927Z,29.66
2022-08-17T19:53:27.705Z,29.69
2022-08-17T19:56:08.706Z,29.69
2022-08-17T19:58:17.866Z,29.69
2022-08-17T20:00:22.962Z,29.68
2022-08-17T20:02:27.821Z,29.64
2022-08-17T20:04:32.906Z,29.63
2022-08-17T20:06:37.495Z,29.63
2022-08-17T20:08:42.164Z,29.64
2022-08-17T20:10:47.334Z,29.61
2022-08-17T20:12:59.595Z,29.61
2022-08-17T20:15:04.320Z,29.6
2022-08-17T20:17:08.847Z,29.6
2022-08-17T20:19:13.570Z,29.59
2022-08-17T20:21:19.676Z,29.6
2022-08-17T20:23:24.656Z,29.58
2022-08-17T20:25:30.213Z,29.59
2022-08-17T20:27:35.329Z,29.58
2022-08-17T20:29:40.730Z,29.59
2022-08-17T20:31:45.390Z,29.6
2022-08-17T20:33:49.911Z,29.61
2022-08-17T20:35:54.422Z,29.62
2022-08-17T20:37:58.945Z,29.61
2022-08-17T20:40:03.537Z,29.6
2022-08-17T20:42:08.390Z,29.6
2022-08-17T20:44:12.913Z,29.61
2022-08-17T20:46:17.838Z,29.6
2022-08-17T20:48:37.225Z,29.6
2022-08-17T20:50:43.684Z,29.59
2022-08-17T20:52:48.290Z,29.6
2022-08-17T20:54:52.768Z,29.62
2022-08-17T20:56:57.483Z,29.62
2022-08-17T20:59:02.051Z,29.62
2022-08-17T21:01:06.725Z,29.62
2022-08-17T21:03:11.412Z,29.62
2022-08-17T21:05:15.976Z,29.61
2022-08-17T21:07:20.543Z,29.62
2022-08-17T21:09:25.057Z,29.63
2022-08-17T21:11:57.431Z,29.65
2022-08-17T21:14:09.323Z,29.65
2022-08-17T21:16:13.799Z,29.66
2022-08-17T21:18:18.373Z,29.68
2022-08-17T21:20:22.985Z,29.69
2022-08-17T21:22:27.513Z,29.69
2022-08-17T21:24:32.230Z,29.7
2022-08-17T21:26:36.762Z,29.71
2022-08-17T21:29:01.176Z,29.72
2022-08-17T21:31:38.948Z,29.72
2022-08-17T21:33:46.218Z,29.7
2022-08-17T21:35:50.732Z,29.7
2022-08-17T21:38:01.015Z,29.7
2022-08-17T21:40:05.559Z,29.69
2022-08-17T21:42:10.336Z,29.7
2022-08-17T21:44:14.855Z,29.71
2022-08-17T21:46:19.474Z,29.72
2022-08-17T21:48:23.995Z,29.71
2022-08-17T21:50:29.975Z,29.7
2022-08-17T21:52:35.287Z,29.71
2022-08-17T21:54:39.810Z,29.7
2022-08-17T21:56:44.294Z,29.69
2022-08-17T21:58:48.791Z,29.69
2022-08-17T22:00:53.403Z,29.69
2022-08-17T22:02:58.204Z,29.69
2022-08-17T22:05:02.758Z,29.69
2022-08-17T22:07:07.329Z,29.68
2022-08-17T22:09:11.848Z,29.68
2022-08-17T22:11:16.371Z,29.69
2022-08-17T22:13:20.780Z,29.7
2022-08-17T22:15:36.941Z,29.69
2022-08-17T22:17:43.549Z,29.71
2022-08-17T22:19:48.490Z,29.71
2022-08-17T22:21:53.217Z,29.71
2022-08-17T22:23:57.944Z,29.7
2022-08-17T22:26:02.759Z,29.7
2022-08-17T22:28:07.585Z,29.7
2022-08-17T22:30:12.206Z,29.69
2022-08-17T22:32:17.029Z,29.69
2022-08-17T22:34:21.859Z,29.69
2022-08-17T22:36:26.513Z,29.67
2022-08-17T22:38:34.381Z,29.68
2022-08-17T22:40:40.634Z,29.67
2022-08-17T22:42:45.365Z,29.67
2022-08-17T22:44:50.086Z,29.68
2022-08-17T22:46:54.813Z,29.68
2022-08-17T22:48:59.573Z,29.66
2022-08-17T22:51:04.156Z,29.67
2022-08-17T22:53:17.794Z,29.65
2022-08-17T22:55:22.616Z,29.67
2022-08-17T22:57:27.445Z,29.68
2022-08-17T22:59:32.276Z,29.69
2022-08-17T23:01:37.092Z,29.68
2022-08-17T23:03:41.843Z,29.68
2022-08-17T23:05:46.646Z,29.67
2022-08-17T23:07:51.636Z,29.68
2022-08-17T23:09:56.603Z,29.67
2022-08-17T23:12:01.325Z,29.68
2022-08-17T23:14:06.008Z,29.66
2022-08-17T23:16:10.682Z,29.64
2022-08-17T23:18:15.502Z,29.63
2022-08-17T23:20:20.223Z,29.63
2022-08-17T23:22:24.949Z,29.62
2022-08-17T23:24:29.571Z,29.63
2022-08-17T23:26:34.290Z,29.63
2022-08-17T23:28:39.020Z,29.63
2022-08-17T23:30:43.841Z,29.62
2022-08-17T23:32:53.518Z,29.63
2022-08-17T23:34:58.719Z,29.63
2022-08-17T23:37:03.342Z,29.64
2022-08-17T23:39:07.895Z,29.62
2022-08-17T23:41:12.686Z,29.61
2022-08-17T23:43:23.870Z,29.6
2022-08-17T23:45:31.761Z,29.61
2022-08-17T23:47:36.584Z,29.59
2022-08-17T23:49:41.315Z,29.59
2022-08-17T23:51:49.223Z,29.58
2022-08-17T23:53:53.931Z,29.57
2022-08-17T23:56:01.543Z,29.56
2022-08-17T23:58:15.050Z,29.58
